createdAt,value
2018-09-30T00:00:07.080Z,81.23
2018-09-30T00:01:07.065Z,82.19
2018-09-30T00:02:07.109Z,84.09
2018-09-30T00:03:07.045Z,85.79
2018-09-30T00:04:07.058Z,85.94
2018-09-30T00:05:07.049Z,87.12
2018-09-30T00:06:07.026Z,87.53
2018-09-30T00:07:07.004Z,88.88
2018-09-30T00:08:07.055Z,88.36
2018-09-30T00:09:06.992Z,87.63
2018-09-30T00:10:06.975Z,88.84
2018-09-30T00:11:06.954Z,87.97
2018-09-30T00:12:06.954Z,88.34
2018-09-30T00:13:06.964Z,85.63
2018-09-30T00:14:06.936Z,81.56
2018-09-30T00:15:06.929Z,80.98
2018-09-30T00:16:06.902Z,81.29
2018-09-30T00:17:06.899Z,81.60
2018-09-30T00:18:06.908Z,81.02
2018-09-30T00:19:06.879Z,81.40
2018-09-30T00:20:06.899Z,83.41
2018-09-30T00:21:06.858Z,84.90
2018-09-30T00:22:06.839Z,85.35
2018-09-30T00:23:06.855Z,87.12
2018-09-30T00:24:06.852Z,87.74
2018-09-30T00:25:06.823Z,87.63
2018-09-30T00:26:06.795Z,87.63
2018-09-30T00:27:06.793Z,87.43
2018-09-30T00:28:06.847Z,87.68
2018-09-30T00:29:06.760Z,87.57
2018-09-30T00:30:06.770Z,88.13
2018-09-30T00:31:06.750Z,88.02
2018-09-30T00:32:06.731Z,88.71
2018-09-30T00:33:06.750Z,87.99
2018-09-30T00:34:06.722Z,88.71
2018-09-30T00:35:06.700Z,88.82
2018-09-30T00:36:06.717Z,89.00
2018-09-30T00:37:06.678Z,84.99
2018-09-30T00:38:06.709Z,83.44
2018-09-30T00:39:06.650Z,83.40
2018-09-30T00:40:06.669Z,83.40
2018-09-30T00:41:06.643Z,81.95
2018-09-30T00:42:06.619Z,82.43
2018-09-30T00:43:06.624Z,81.56
2018-09-30T00:44:06.600Z,79.08
2018-09-30T00:45:06.589Z,79.91
2018-09-30T00:46:06.586Z,83.71
2018-09-30T00:47:06.565Z,83.73
2018-09-30T00:48:06.590Z,81.25
2018-09-30T00:49:06.562Z,79.56
2018-09-30T00:50:06.528Z,79.08
2018-09-30T00:51:06.532Z,79.74
2018-09-30T00:52:06.513Z,81.60
2018-09-30T00:53:06.522Z,80.46
2018-09-30T00:54:06.492Z,79.47
2018-09-30T00:55:06.476Z,79.91
2018-09-30T00:56:06.485Z,81.85
2018-09-30T00:57:06.450Z,84.00
2018-09-30T00:58:06.479Z,86.12
2018-09-30T00:59:06.437Z,87.26
2018-09-30T01:00:06.440Z,87.26
2018-09-30T01:01:06.407Z,89.04
2018-09-30T01:02:06.398Z,87.06
2018-09-30T01:03:06.409Z,83.94
2018-09-30T01:04:06.386Z,79.08
2018-09-30T01:05:06.387Z,79.12
2018-09-30T01:06:06.349Z,81.47
2018-09-30T01:07:06.335Z,82.48
2018-09-30T01:08:06.391Z,85.89
2018-09-30T01:09:06.325Z,84.95
2018-09-30T01:10:06.323Z,82.08
2018-09-30T01:11:06.313Z,79.12
2018-09-30T01:12:06.293Z,80.12
2018-09-30T01:13:06.298Z,82.37
2018-09-30T01:14:06.305Z,84.31
2018-09-30T01:15:06.256Z,85.14
2018-09-30T01:16:06.242Z,87.53
2018-09-30T01:17:06.225Z,87.02
2018-09-30T01:18:06.259Z,82.15
2018-09-30T01:19:06.207Z,79.77
2018-09-30T01:20:06.198Z,80.49
2018-09-30T01:21:06.184Z,80.43
2018-09-30T01:22:06.238Z,80.18
2018-09-30T01:23:06.180Z,79.29
2018-09-30T01:24:06.144Z,79.22
2018-09-30T01:25:06.152Z,80.46
2018-09-30T01:26:06.154Z,82.05
2018-09-30T01:27:06.116Z,81.54
2018-09-30T01:28:06.137Z,81.39
2018-09-30T01:29:06.107Z,81.29
2018-09-30T01:30:06.127Z,81.87
2018-09-30T01:31:06.078Z,79.91
2018-09-30T01:32:06.068Z,80.08
2018-09-30T01:33:06.069Z,81.51
2018-09-30T01:34:06.037Z,82.89
2018-09-30T01:35:06.059Z,84.38
2018-09-30T01:36:06.014Z,87.28
2018-09-30T01:37:06.009Z,87.37
2018-09-30T01:38:06.021Z,81.60
2018-09-30T01:39:05.989Z,80.77
2018-09-30T01:40:05.984Z,82.01
2018-09-30T01:41:05.963Z,80.60
2018-09-30T01:42:05.964Z,79.09
2018-09-30T01:43:05.967Z,81.13
2018-09-30T01:44:05.970Z,83.83
2018-09-30T01:45:05.921Z,85.92
2018-09-30T01:46:05.907Z,82.15
2018-09-30T01:47:05.897Z,80.57
2018-09-30T01:48:05.885Z,80.67
2018-09-30T01:49:05.897Z,80.32
2018-09-30T01:50:05.874Z,80.39
2018-09-30T01:51:05.849Z,78.98
2018-09-30T01:52:05.837Z,78.98
2018-09-30T01:53:05.829Z,79.53
2018-09-30T01:54:05.839Z,80.77
2018-09-30T01:55:05.854Z,81.02
2018-09-30T01:56:05.802Z,80.64
2018-09-30T01:57:05.784Z,82.46
2018-09-30T01:58:05.771Z,81.43
2018-09-30T01:59:05.814Z,81.39
2018-09-30T02:00:05.759Z,79.16
2018-09-30T02:01:05.743Z,80.88
2018-09-30T02:02:05.734Z,85.78
2018-09-30T02:03:05.712Z,82.60
2018-09-30T02:04:05.738Z,78.56
2018-09-30T02:05:05.696Z,81.94
2018-09-30T02:06:05.690Z,79.63
2018-09-30T02:07:05.681Z,76.05
2018-09-30T02:08:05.682Z,78.53
2018-09-30T02:09:05.673Z,81.99
2018-09-30T02:10:05.678Z,84.33
2018-09-30T02:11:05.639Z,81.42
2018-09-30T02:12:05.642Z,79.69
2018-09-30T02:13:05.607Z,76.98
2018-09-30T02:14:05.623Z,77.18
2018-09-30T02:15:05.584Z,75.77
2018-09-30T02:16:05.573Z,77.36
2018-09-30T02:17:05.570Z,76.09
2018-09-30T02:18:05.560Z,76.84
2018-09-30T02:19:05.576Z,78.53
2018-09-30T02:20:05.534Z,80.54
2018-09-30T02:21:05.521Z,81.05
2018-09-30T02:22:05.520Z,82.78
2018-09-30T02:23:05.565Z,81.09
2018-09-30T02:24:05.543Z,80.26
2018-09-30T02:25:05.481Z,83.00
2018-09-30T02:26:05.473Z,82.62
2018-09-30T02:27:05.448Z,84.05
2018-09-30T02:28:05.441Z,85.95
2018-09-30T02:29:05.457Z,87.95
2018-09-30T02:30:05.419Z,87.59
2018-09-30T02:31:05.471Z,83.59
2018-09-30T02:32:05.419Z,84.52
2018-09-30T02:33:05.397Z,85.71
2018-09-30T02:34:05.400Z,86.05
2018-09-30T02:35:05.433Z,87.19
2018-09-30T02:36:05.354Z,87.55
2018-09-30T02:37:05.354Z,87.76
2018-09-30T02:38:05.332Z,87.86
2018-09-30T02:39:05.343Z,87.96
2018-09-30T02:40:05.314Z,88.07
2018-09-30T02:41:05.328Z,89.21
2018-09-30T02:42:05.286Z,87.65
2018-09-30T02:43:05.277Z,87.45
2018-09-30T02:44:05.285Z,87.96
2018-09-30T02:45:05.273Z,87.86
2018-09-30T02:46:05.252Z,88.96
2018-09-30T02:47:05.233Z,87.95
2018-09-30T02:48:05.233Z,86.79
2018-09-30T02:49:05.250Z,81.37
2018-09-30T02:50:05.210Z,80.82
2018-09-30T02:51:05.186Z,82.65
2018-09-30T02:52:05.188Z,85.91
2018-09-30T02:53:05.249Z,86.26
2018-09-30T02:54:05.186Z,87.86
2018-09-30T02:55:05.141Z,87.55
2018-09-30T02:56:05.128Z,87.55
2018-09-30T02:57:05.144Z,87.86
2018-09-30T02:58:05.128Z,87.59
2018-09-30T02:59:05.121Z,87.73
2018-09-30T03:00:05.089Z,88.09
2018-09-30T03:01:05.077Z,88.60
2018-09-30T03:02:05.097Z,89.02
2018-09-30T03:03:05.065Z,89.64
2018-09-30T03:04:05.071Z,90.37
2018-09-30T03:05:05.043Z,90.29
2018-09-30T03:06:05.026Z,89.81
2018-09-30T03:07:05.013Z,89.60
2018-09-30T03:08:05.000Z,89.95
2018-09-30T03:09:05.014Z,89.95
2018-09-30T03:10:05.012Z,91.06
2018-09-30T03:11:04.975Z,90.33
2018-09-30T03:12:04.984Z,90.44
2018-09-30T03:13:04.939Z,89.95
2018-09-30T03:14:04.954Z,90.54
2018-09-30T03:15:04.920Z,90.58
2018-09-30T03:16:04.961Z,90.58
2018-09-30T03:17:04.910Z,90.47
2018-09-30T03:18:04.891Z,91.10
2018-09-30T03:19:04.901Z,90.33
2018-09-30T03:20:04.906Z,90.44
2018-09-30T03:21:04.853Z,89.92
2018-09-30T03:22:04.857Z,90.23
2018-09-30T03:23:04.835Z,90.33
2018-09-30T03:24:04.841Z,90.44
2018-09-30T03:25:04.850Z,90.12
2018-09-30T03:26:04.800Z,91.45
2018-09-30T03:27:04.788Z,87.90
2018-09-30T03:28:04.779Z,85.82
2018-09-30T03:29:04.808Z,82.92
2018-09-30T03:30:04.757Z,82.36
2018-09-30T03:31:04.744Z,78.02
2018-09-30T03:32:04.731Z,80.16
2018-09-30T03:33:04.751Z,81.40
2018-09-30T03:34:04.708Z,79.37
2018-09-30T03:35:04.721Z,81.23
2018-09-30T03:36:04.695Z,80.75
2018-09-30T03:37:04.695Z,80.89
2018-09-30T03:38:04.673Z,82.59
2018-09-30T03:39:04.668Z,83.70
2018-09-30T03:40:04.665Z,86.09
2018-09-30T03:41:04.665Z,87.47
2018-09-30T03:42:04.641Z,83.38
2018-09-30T03:43:04.612Z,83.32
2018-09-30T03:44:04.607Z,82.34
2018-09-30T03:45:04.616Z,82.07
2018-09-30T03:46:04.587Z,83.04
2018-09-30T03:47:04.581Z,84.47
2018-09-30T03:48:04.569Z,87.55
2018-09-30T03:49:04.542Z,85.99
2018-09-30T03:50:04.548Z,84.99
2018-09-30T03:51:04.529Z,85.90
2018-09-30T03:52:04.518Z,87.88
2018-09-30T03:53:04.540Z,88.71
2018-09-30T03:54:04.495Z,87.88
2018-09-30T03:55:04.498Z,90.45
2018-09-30T03:56:04.470Z,85.53
2018-09-30T03:57:04.455Z,84.53
2018-09-30T03:58:04.444Z,86.03
2018-09-30T03:59:04.452Z,86.32
2018-09-30T04:00:04.455Z,87.88
2018-09-30T04:01:04.404Z,88.75
2018-09-30T04:02:04.400Z,89.79
2018-09-30T04:03:04.384Z,90.75
2018-09-30T04:04:04.374Z,89.62
2018-09-30T04:05:04.399Z,86.12
2018-09-30T04:06:04.360Z,83.90
2018-09-30T04:07:04.365Z,83.86
2018-09-30T04:08:04.342Z,82.62
2018-09-30T04:09:04.339Z,81.79
2018-09-30T04:10:04.384Z,81.99
2018-09-30T04:11:04.309Z,80.79
2018-09-30T04:12:04.289Z,85.11
2018-09-30T04:13:04.276Z,82.95
2018-09-30T04:14:04.271Z,81.49
2018-09-30T04:15:04.287Z,78.67
2018-09-30T04:16:04.247Z,77.98
2018-09-30T04:17:04.336Z,76.57
2018-09-30T04:18:04.223Z,78.23
2018-09-30T04:19:04.254Z,81.56
2018-09-30T04:20:04.231Z,84.27
2018-09-30T04:21:04.185Z,86.38
2018-09-30T04:22:04.198Z,88.15
2018-09-30T04:23:04.171Z,87.84
2018-09-30T04:24:04.164Z,87.88
2018-09-30T04:25:04.173Z,88.50
2018-09-30T04:26:04.133Z,88.29
2018-09-30T04:27:04.126Z,87.15
2018-09-30T04:28:04.130Z,87.66
2018-09-30T04:29:04.112Z,88.19
2018-09-30T04:30:04.109Z,90.10
2018-09-30T04:31:04.079Z,87.32
2018-09-30T04:32:04.067Z,82.72
2018-09-30T04:33:04.075Z,82.27
2018-09-30T04:34:04.102Z,80.30
2018-09-30T04:35:04.055Z,79.20
2018-09-30T04:36:04.037Z,81.72
2018-09-30T04:37:04.011Z,84.94
2018-09-30T04:38:04.000Z,83.48
2018-09-30T04:39:03.992Z,84.92
2018-09-30T04:40:03.998Z,81.37
2018-09-30T04:41:03.966Z,80.54
2018-09-30T04:42:04.010Z,79.13
2018-09-30T04:43:03.942Z,81.75
2018-09-30T04:44:03.939Z,82.23
2018-09-30T04:45:03.944Z,81.09
2018-09-30T04:46:03.913Z,78.85
2018-09-30T04:47:03.901Z,81.44
2018-09-30T04:48:03.889Z,81.82
2018-09-30T04:49:03.875Z,81.51
2018-09-30T04:50:03.896Z,79.85
2018-09-30T04:51:03.859Z,81.09
2018-09-30T04:52:03.878Z,81.44
2018-09-30T04:53:03.852Z,80.92
2018-09-30T04:54:03.833Z,81.89
2018-09-30T04:55:03.829Z,84.23
2018-09-30T04:56:03.809Z,82.40
2018-09-30T04:57:03.810Z,79.47
2018-09-30T04:58:03.793Z,78.22
2018-09-30T04:59:03.767Z,78.61
2018-09-30T05:00:03.785Z,78.61
2018-09-30T05:01:03.752Z,79.41
2018-09-30T05:02:03.743Z,81.72
2018-09-30T05:03:03.724Z,82.03
2018-09-30T05:04:03.715Z,82.97
2018-09-30T05:05:03.748Z,83.38
2018-09-30T05:06:03.690Z,81.51
2018-09-30T05:07:03.685Z,80.62
2018-09-30T05:08:03.675Z,81.24
2018-09-30T05:09:03.652Z,82.28
2018-09-30T05:10:03.672Z,82.07
2018-09-30T05:11:03.658Z,83.11
2018-09-30T05:12:03.624Z,82.59
2018-09-30T05:13:03.614Z,83.11
2018-09-30T05:14:03.595Z,82.39
2018-09-30T05:15:03.617Z,81.87
2018-09-30T05:16:03.665Z,84.52
2018-09-30T05:17:03.611Z,82.37
2018-09-30T05:18:03.604Z,80.88
2018-09-30T05:19:03.586Z,78.67
2018-09-30T05:20:03.537Z,76.22
2018-09-30T05:21:03.546Z,77.39
2018-09-30T05:22:03.513Z,79.09
2018-09-30T05:23:03.501Z,78.30
2018-09-30T05:24:03.507Z,78.75
2018-09-30T05:25:03.479Z,80.02
2018-09-30T05:26:03.497Z,80.99
2018-09-30T05:27:03.473Z,81.30
2018-09-30T05:28:03.451Z,82.24
2018-09-30T05:29:03.430Z,81.20
2018-09-30T05:30:03.426Z,82.65
2018-09-30T05:31:03.479Z,81.82
2018-09-30T05:32:03.400Z,80.37
2018-09-30T05:33:03.407Z,80.99
2018-09-30T05:34:03.377Z,81.87
2018-09-30T05:35:03.364Z,82.97
2018-09-30T05:36:03.392Z,81.30
2018-09-30T05:37:03.383Z,81.30
2018-09-30T05:38:03.344Z,81.56
2018-09-30T05:39:03.330Z,81.35
2018-09-30T05:40:03.318Z,82.80
2018-09-30T05:41:03.332Z,82.07
2018-09-30T05:42:03.309Z,82.59
2018-09-30T05:43:03.283Z,83.04
2018-09-30T05:44:03.271Z,83.48
2018-09-30T05:45:03.252Z,82.41
2018-09-30T05:46:03.267Z,81.23
2018-09-30T05:47:03.249Z,79.71
2018-09-30T05:48:03.235Z,79.61
2018-09-30T05:49:03.224Z,80.68
2018-09-30T05:50:03.225Z,81.10
2018-09-30T05:51:03.242Z,81.97
2018-09-30T05:52:03.179Z,81.62
2018-09-30T05:53:03.169Z,81.93
2018-09-30T05:54:03.161Z,81.35
2018-09-30T05:55:03.165Z,82.49
2018-09-30T05:56:03.198Z,82.93
2018-09-30T05:57:03.122Z,80.99
2018-09-30T05:58:03.190Z,78.16
2018-09-30T05:59:03.105Z,78.54
2018-09-30T06:00:03.095Z,78.75
2018-09-30T06:01:03.114Z,80.44
2018-09-30T06:02:03.073Z,79.85
2018-09-30T06:03:03.086Z,82.86
2018-09-30T06:04:03.135Z,82.10
2018-09-30T06:05:03.043Z,81.58
2018-09-30T06:06:03.066Z,81.75
2018-09-30T06:07:03.063Z,81.57
2018-09-30T06:08:03.003Z,80.02
2018-09-30T06:09:03.045Z,78.85
2018-09-30T06:10:02.996Z,78.26
2018-09-30T06:11:03.009Z,79.74
2018-09-30T06:12:02.965Z,80.88
2018-09-30T06:13:02.962Z,80.57
2018-09-30T06:14:03.120Z,80.57
2018-09-30T06:15:02.932Z,80.47
2018-09-30T06:16:03.039Z,80.19
2018-09-30T06:17:02.911Z,80.40
2018-09-30T06:18:02.898Z,80.13
2018-09-30T06:19:02.927Z,81.06
2018-09-30T06:20:02.879Z,81.68
2018-09-30T06:21:02.892Z,81.75
2018-09-30T06:22:02.854Z,81.68
2018-09-30T06:23:02.846Z,81.27
2018-09-30T06:24:02.918Z,81.58
2018-09-30T06:25:02.827Z,81.27
2018-09-30T06:26:02.834Z,80.75
2018-09-30T06:27:02.798Z,81.48
2018-09-30T06:28:02.842Z,81.89
2018-09-30T06:29:02.783Z,81.58
2018-09-30T06:30:02.768Z,83.03
2018-09-30T06:31:02.771Z,82.72
2018-09-30T06:32:02.847Z,82.72
2018-09-30T06:33:02.777Z,82.89
2018-09-30T06:34:02.740Z,80.19
2018-09-30T06:35:02.717Z,79.78
2018-09-30T06:36:02.718Z,81.34
2018-09-30T06:37:02.742Z,81.27
2018-09-30T06:38:02.720Z,81.96
2018-09-30T06:39:02.667Z,82.06
2018-09-30T06:40:02.664Z,81.57
2018-09-30T06:41:02.695Z,80.12
2018-09-30T06:42:02.641Z,80.50
2018-09-30T06:43:02.694Z,79.53
2018-09-30T06:44:02.628Z,79.16
2018-09-30T06:45:02.714Z,81.02
2018-09-30T06:46:02.621Z,81.19
2018-09-30T06:47:02.625Z,80.43
2018-09-30T06:48:02.563Z,78.84
2018-09-30T06:49:02.565Z,78.39
2018-09-30T06:50:02.548Z,76.60
2018-09-30T06:51:02.662Z,76.39
2018-09-30T06:52:02.556Z,76.43
2018-09-30T06:53:02.523Z,76.67
2018-09-30T06:54:02.506Z,77.33
2018-09-30T06:55:02.498Z,78.39
2018-09-30T06:56:02.545Z,78.08
2018-09-30T06:57:02.479Z,75.81
2018-09-30T06:58:02.458Z,76.22
2018-09-30T06:59:02.460Z,77.81
2018-09-30T07:00:02.442Z,78.91
2018-09-30T07:01:02.460Z,77.11
2018-09-30T07:02:02.425Z,78.14
2018-09-30T07:03:02.447Z,77.15
2018-09-30T07:04:02.388Z,76.12
2018-09-30T07:05:02.420Z,78.42
2018-09-30T07:06:02.403Z,77.67
2018-09-30T07:07:02.395Z,77.98
2018-09-30T07:08:02.359Z,78.59
2018-09-30T07:09:02.348Z,78.05
2018-09-30T07:10:02.381Z,77.94
2018-09-30T07:11:02.316Z,78.14
2018-09-30T07:12:02.337Z,77.42
2018-09-30T07:13:02.302Z,77.11
2018-09-30T07:14:02.281Z,78.35
2018-09-30T07:15:02.278Z,76.50
2018-09-30T07:16:02.269Z,78.45
2018-09-30T07:17:02.347Z,76.67
2018-09-30T07:18:02.271Z,77.70
2018-09-30T07:19:02.235Z,76.98
2018-09-30T07:20:02.233Z,75.87
2018-09-30T07:21:02.207Z,75.46
2018-09-30T07:22:02.214Z,77.84
2018-09-30T07:23:02.200Z,77.22
2018-09-30T07:24:02.205Z,78.31
2018-09-30T07:25:02.165Z,76.32
2018-09-30T07:26:02.156Z,76.90
2018-09-30T07:27:02.163Z,74.33
2018-09-30T07:28:02.136Z,76.08
2018-09-30T07:29:02.123Z,76.08
2018-09-30T07:30:02.135Z,75.46
2018-09-30T07:31:02.093Z,76.42
2018-09-30T07:32:02.104Z,71.75
2018-09-30T07:33:02.079Z,72.47
2018-09-30T07:34:02.089Z,72.37
2018-09-30T07:35:02.045Z,73.61
2018-09-30T07:36:02.052Z,73.71
2018-09-30T07:37:02.059Z,73.81
2018-09-30T07:38:02.019Z,73.02
2018-09-30T07:39:02.015Z,74.67
2018-09-30T07:40:01.993Z,72.51
2018-09-30T07:41:01.997Z,72.81
2018-09-30T07:42:02.046Z,72.68
2018-09-30T07:43:01.952Z,71.86
2018-09-30T07:44:01.947Z,72.47
2018-09-30T07:45:01.974Z,75.25
2018-09-30T07:46:01.933Z,73.61
2018-09-30T07:47:01.936Z,74.50
2018-09-30T07:48:01.915Z,70.83
2018-09-30T07:49:01.893Z,71.24
2018-09-30T07:50:01.887Z,70.59
2018-09-30T07:51:01.877Z,70.94
2018-09-30T07:52:01.916Z,71.04
2018-09-30T07:53:01.849Z,72.06
2018-09-30T07:54:01.836Z,71.45
2018-09-30T07:55:01.825Z,71.14
2018-09-30T07:56:01.814Z,70.32
2018-09-30T07:57:01.827Z,70.32
2018-09-30T07:58:01.798Z,69.49
2018-09-30T07:59:01.782Z,69.49
2018-09-30T08:00:01.777Z,69.73
2018-09-30T08:01:01.793Z,70.14
2018-09-30T08:02:01.766Z,70.25
2018-09-30T08:03:01.734Z,70.97
2018-09-30T08:04:01.732Z,72.41
2018-09-30T08:05:01.709Z,70.42
2018-09-30T08:06:01.712Z,69.39
2018-09-30T08:07:01.718Z,70.62
2018-09-30T08:08:01.678Z,70.94
2018-09-30T08:09:01.665Z,69.87
2018-09-30T08:10:01.653Z,69.94
2018-09-30T08:11:01.644Z,68.81
2018-09-30T08:12:01.659Z,68.71
2018-09-30T08:13:01.631Z,69.32
2018-09-30T08:14:01.638Z,68.30
2018-09-30T08:15:01.633Z,69.91
2018-09-30T08:16:01.592Z,66.83
2018-09-30T08:17:01.671Z,66.39
2018-09-30T08:18:01.571Z,67.46
2018-09-30T08:19:01.581Z,65.30
2018-09-30T08:20:01.548Z,65.30
2018-09-30T08:21:01.539Z,64.61
2018-09-30T08:22:01.542Z,66.53
2018-09-30T08:23:01.512Z,64.89
2018-09-30T08:24:01.579Z,64.69
2018-09-30T08:25:01.494Z,66.74
2018-09-30T08:26:01.503Z,65.48
2018-09-30T08:27:01.484Z,65.89
2018-09-30T08:28:01.459Z,64.25
2018-09-30T08:29:01.499Z,65.00
2018-09-30T08:30:01.429Z,66.91
2018-09-30T08:31:01.435Z,66.57
2018-09-30T08:32:01.472Z,65.55
2018-09-30T08:33:01.399Z,65.28
2018-09-30T08:34:01.394Z,64.77
2018-09-30T08:35:01.384Z,63.65
2018-09-30T08:36:01.389Z,62.85
2018-09-30T08:37:01.374Z,64.87
2018-09-30T08:38:01.341Z,62.83
2018-09-30T08:39:01.355Z,62.32
2018-09-30T08:40:01.427Z,62.32
2018-09-30T08:41:01.318Z,62.52
2018-09-30T08:42:01.324Z,62.55
2018-09-30T08:43:01.306Z,65.62
2018-09-30T08:44:01.333Z,63.68
2018-09-30T08:45:01.327Z,64.94
2018-09-30T08:46:01.256Z,65.01
2018-09-30T08:47:01.264Z,64.80
2018-09-30T08:48:01.252Z,64.09
2018-09-30T08:49:01.219Z,64.18
2018-09-30T08:50:01.211Z,64.39
2018-09-30T08:51:01.193Z,63.57
2018-09-30T08:52:01.198Z,62.65
2018-09-30T08:53:01.199Z,64.09
2018-09-30T08:54:01.241Z,63.68
2018-09-30T08:55:01.175Z,63.03
2018-09-30T08:56:01.222Z,63.54
2018-09-30T08:57:01.134Z,63.75
2018-09-30T08:58:01.140Z,64.64
2018-09-30T08:59:01.133Z,63.51
2018-09-30T09:00:01.105Z,63.41
2018-09-30T09:01:01.117Z,63.72
2018-09-30T09:02:01.078Z,62.80
2018-09-30T09:03:01.130Z,62.90
2018-09-30T09:04:01.057Z,62.57
2018-09-30T09:05:01.041Z,60.72
2018-09-30T09:06:01.037Z,61.16
2018-09-30T09:07:01.037Z,61.88
2018-09-30T09:08:01.037Z,63.41
2018-09-30T09:09:00.998Z,63.72
2018-09-30T09:10:00.985Z,62.49
2018-09-30T09:11:00.975Z,62.98
2018-09-30T09:12:01.009Z,61.54
2018-09-30T09:13:00.972Z,60.72
2018-09-30T09:14:00.980Z,60.62
2018-09-30T09:15:00.925Z,61.77
2018-09-30T09:16:00.925Z,63.48
2018-09-30T09:17:00.909Z,62.87
2018-09-30T09:18:00.926Z,61.75
2018-09-30T09:19:00.884Z,61.10
2018-09-30T09:20:00.913Z,59.57
2018-09-30T09:21:00.873Z,59.37
2018-09-30T09:22:00.862Z,58.65
2018-09-30T09:23:00.864Z,60.87
2018-09-30T09:24:00.861Z,58.32
2018-09-30T09:25:00.821Z,59.44
2018-09-30T09:26:00.818Z,59.55
2018-09-30T09:27:00.803Z,61.69
2018-09-30T09:28:00.849Z,61.49
2018-09-30T09:29:00.775Z,60.67
2018-09-30T09:30:00.773Z,59.75
2018-09-30T09:31:00.760Z,59.34
2018-09-30T09:32:00.741Z,60.39
2018-09-30T09:33:00.770Z,60.46
2018-09-30T09:34:00.729Z,57.81
2018-09-30T09:35:00.723Z,57.91
2018-09-30T09:36:00.701Z,55.26
2018-09-30T09:37:00.687Z,55.76
2018-09-30T09:38:00.751Z,55.26
2018-09-30T09:39:00.668Z,55.13
2018-09-30T09:40:00.649Z,55.33
2018-09-30T09:41:00.669Z,55.84
2018-09-30T09:42:00.646Z,55.94
2018-09-30T09:43:00.648Z,55.13
2018-09-30T09:44:00.606Z,54.92
2018-09-30T09:45:00.612Z,54.90
2018-09-30T09:46:00.591Z,55.54
2018-09-30T09:47:00.643Z,55.23
2018-09-30T09:48:00.587Z,54.90
2018-09-30T09:49:00.555Z,53.27
2018-09-30T09:50:00.547Z,52.73
2018-09-30T09:51:00.567Z,52.73
2018-09-30T09:52:00.516Z,53.14
2018-09-30T09:53:00.542Z,53.34
2018-09-30T09:54:00.499Z,54.16
2018-09-30T09:55:00.483Z,55.46
2018-09-30T09:56:00.479Z,54.13
2018-09-30T09:57:00.478Z,53.01
2018-09-30T09:58:00.473Z,52.60
2018-09-30T09:59:00.463Z,51.99
2018-09-30T10:00:00.426Z,53.01
2018-09-30T10:01:00.422Z,52.50
2018-09-30T10:02:00.421Z,52.70
2018-09-30T10:03:00.480Z,52.81
2018-09-30T10:04:00.401Z,53.09
2018-09-30T10:05:00.384Z,53.80
2018-09-30T10:06:00.357Z,54.24
2018-09-30T10:07:00.359Z,52.88
2018-09-30T10:08:00.371Z,53.59
2018-09-30T10:09:00.328Z,53.70
2018-09-30T10:10:00.327Z,53.80
2018-09-30T10:11:00.313Z,54.41
2018-09-30T10:12:00.299Z,53.29
2018-09-30T10:13:00.318Z,52.98
2018-09-30T10:14:00.268Z,52.98
2018-09-30T10:15:00.263Z,51.74
2018-09-30T10:16:00.250Z,52.86
2018-09-30T10:17:00.291Z,52.76
2018-09-30T10:18:00.254Z,52.96
2018-09-30T10:19:00.239Z,52.25
2018-09-30T10:20:00.208Z,52.76
2018-09-30T10:21:00.197Z,53.04
2018-09-30T10:22:00.183Z,53.37
2018-09-30T10:23:00.194Z,52.66
2018-09-30T10:24:00.169Z,51.74
2018-09-30T10:25:00.210Z,51.51
2018-09-30T10:26:00.134Z,51.92
2018-09-30T10:27:00.133Z,52.63
2018-09-30T10:28:00.114Z,51.72
2018-09-30T10:29:00.127Z,51.51
2018-09-30T10:30:00.089Z,51.81
2018-09-30T10:31:00.125Z,52.43
2018-09-30T10:32:00.115Z,51.28
2018-09-30T10:33:00.056Z,51.59
2018-09-30T10:34:00.070Z,51.69
2018-09-30T10:35:00.084Z,51.69
2018-09-30T10:36:00.046Z,52.00
2018-09-30T10:37:00.013Z,52.40
2018-09-30T10:38:00.003Z,52.30
2018-09-30T10:39:00.219Z,51.89
2018-09-30T10:39:59.979Z,51.69
2018-09-30T10:40:59.974Z,52.61
2018-09-30T10:41:59.970Z,50.98
2018-09-30T10:42:59.945Z,51.18
2018-09-30T10:43:59.968Z,51.48
2018-09-30T10:44:59.932Z,50.16
2018-09-30T10:45:59.921Z,49.63
2018-09-30T10:46:59.910Z,49.22
2018-09-30T10:47:59.913Z,49.43
2018-09-30T10:48:59.902Z,49.10
2018-09-30T10:49:59.865Z,50.42
2018-09-30T10:50:59.901Z,51.23
2018-09-30T10:51:59.850Z,50.22
2018-09-30T10:52:59.837Z,50.62
2018-09-30T10:53:59.877Z,50.32
2018-09-30T10:54:59.819Z,50.42
2018-09-30T10:55:59.802Z,51.54
2018-09-30T10:56:59.872Z,49.61
2018-09-30T10:57:59.782Z,51.44
2018-09-30T10:58:59.795Z,48.28
2018-09-30T10:59:59.794Z,47.78
2018-09-30T11:00:59.749Z,47.67
2018-09-30T11:01:59.733Z,48.28
2018-09-30T11:02:59.720Z,47.37
2018-09-30T11:03:59.735Z,45.95
2018-09-30T11:04:59.710Z,46.66
2018-09-30T11:05:59.690Z,47.98
2018-09-30T11:06:59.704Z,46.56
2018-09-30T11:07:59.672Z,46.15
2018-09-30T11:08:59.677Z,46.05
2018-09-30T11:09:59.662Z,45.84
2018-09-30T11:10:59.631Z,47.47
2018-09-30T11:11:59.678Z,46.86
2018-09-30T11:12:59.610Z,45.34
2018-09-30T11:13:59.637Z,46.05
2018-09-30T11:14:59.595Z,45.24
2018-09-30T11:15:59.626Z,45.93
2018-09-30T11:16:59.564Z,45.83
2018-09-30T11:17:59.566Z,45.21
2018-09-30T11:18:59.631Z,45.83
2018-09-30T11:19:59.545Z,45.83
2018-09-30T11:20:59.530Z,45.52
2018-09-30T11:21:59.512Z,45.83
2018-09-30T11:22:59.499Z,46.84
2018-09-30T11:23:59.505Z,45.90
2018-09-30T11:24:59.478Z,44.68
2018-09-30T11:25:59.472Z,45.83
2018-09-30T11:26:59.471Z,46.51
2018-09-30T11:27:59.448Z,46.01
2018-09-30T11:28:59.455Z,45.83
2018-09-30T11:29:59.461Z,45.60
2018-09-30T11:30:59.412Z,45.52
2018-09-30T11:31:59.492Z,46.41
2018-09-30T11:32:59.386Z,45.80
2018-09-30T11:33:59.399Z,45.70
2018-09-30T11:34:59.365Z,43.65
2018-09-30T11:35:59.368Z,43.96
2018-09-30T11:36:59.349Z,43.75
2018-09-30T11:37:59.325Z,42.94
2018-09-30T11:38:59.340Z,43.14
2018-09-30T11:39:59.311Z,41.72
2018-09-30T11:40:59.311Z,43.65
2018-09-30T11:41:59.296Z,42.33
2018-09-30T11:42:59.283Z,44.24
2018-09-30T11:43:59.291Z,43.55
2018-09-30T11:44:59.260Z,44.56
2018-09-30T11:45:59.236Z,43.02
2018-09-30T11:46:59.235Z,43.85
2018-09-30T11:47:59.249Z,43.14
2018-09-30T11:48:59.234Z,42.82
2018-09-30T11:49:59.195Z,43.65
2018-09-30T11:50:59.200Z,42.54
2018-09-30T11:51:59.226Z,42.13
2018-09-30T11:52:59.167Z,42.43
2018-09-30T11:53:59.202Z,41.72
2018-09-30T11:54:59.148Z,40.89
2018-09-30T11:55:59.136Z,40.38
2018-09-30T11:56:59.119Z,40.59
2018-09-30T11:57:59.114Z,39.78
2018-09-30T11:58:59.120Z,38.86
2018-09-30T11:59:59.082Z,39.47
2018-09-30T12:00:59.075Z,40.08
2018-09-30T12:01:59.096Z,41.70
2018-09-30T12:02:59.059Z,41.50
2018-09-30T12:03:59.059Z,40.36
2018-09-30T12:04:59.032Z,40.06
2018-09-30T12:05:59.020Z,40.59
2018-09-30T12:06:59.034Z,41.30
2018-09-30T12:07:58.997Z,40.99
2018-09-30T12:08:58.988Z,41.38
2018-09-30T12:09:59.015Z,42.61
2018-09-30T12:10:58.969Z,43.71
2018-09-30T12:11:58.961Z,41.30
2018-09-30T12:12:58.957Z,42.19
2018-09-30T12:13:58.926Z,43.51
2018-09-30T12:14:58.941Z,44.01
2018-09-30T12:15:58.904Z,43.91
2018-09-30T12:16:58.896Z,41.48
2018-09-30T12:17:58.933Z,40.36
2018-09-30T12:18:58.870Z,40.26
2018-09-30T12:19:58.886Z,42.19
2018-09-30T12:20:58.850Z,41.48
2018-09-30T12:21:58.852Z,41.07
2018-09-30T12:22:58.823Z,41.07
2018-09-30T12:23:58.814Z,41.07
2018-09-30T12:24:58.824Z,42.19
2018-09-30T12:25:58.919Z,42.19
2018-09-30T12:26:58.788Z,42.47
2018-09-30T12:27:58.776Z,42.27
2018-09-30T12:28:58.754Z,42.80
2018-09-30T12:29:58.823Z,42.98
2018-09-30T12:30:58.739Z,42.78
2018-09-30T12:31:58.724Z,42.68
2018-09-30T12:32:58.724Z,43.79
2018-09-30T12:33:58.715Z,43.18
2018-09-30T12:34:58.720Z,43.38
2018-09-30T12:35:58.678Z,42.98
2018-09-30T12:36:58.716Z,42.27
2018-09-30T12:37:58.657Z,42.66
2018-09-30T12:38:58.648Z,41.95
2018-09-30T12:39:58.667Z,41.56
2018-09-30T12:40:58.661Z,41.56
2018-09-30T12:41:58.610Z,41.46
2018-09-30T12:42:58.603Z,42.17
2018-09-30T12:43:58.595Z,41.77
2018-09-30T12:44:58.653Z,42.17
2018-09-30T12:45:58.574Z,41.56
2018-09-30T12:46:58.560Z,42.35
2018-09-30T12:47:58.544Z,42.37
2018-09-30T12:48:58.552Z,42.88
2018-09-30T12:49:58.542Z,42.27
2018-09-30T12:50:58.517Z,43.16
2018-09-30T12:51:58.516Z,42.35